Time;durP1;ratioP1;P1;durP2;ratioP2;P2;SDS_P1;SDS_P2;PMS_P1;PMS_P2;Temp;Humidity;BMP_temperature;BMP_pressure;BME280_temperature;BME280_humidity;BME280_pressure;Samples;Min_cycle;Max_cycle;Signal;HPM_P1;HPM_P2
2023/12/12 00:01:31;;;;;;;1.20;1.17;;;;;;;;;;4948384;28;20506;-86
2023/12/12 00:03:57;;;;;;;0.20;0.00;;;;;;;;;;4936629;29;20294;-85
2023/12/12 00:06:24;;;;;;;0.20;0.10;;;;;;;;;;4932238;29;20085;-85
2023/12/12 00:08:59;;;;;;;0.20;0.00;;;;;;;;;;4954028;28;20063;-86
2023/12/12 00:11:25;;;;;;;0.20;0.05;;;;;;;;;;4940348;29;20306;-85
2023/12/12 00:13:51;;;;;;;0.20;0.08;;;;;;;;;;4938218;28;20031;-86
2023/12/12 00:16:26;;;;;;;0.20;0.03;;;;;;;;;;4934012;29;20047;-87
2023/12/12 00:18:52;;;;;;;0.20;0.00;;;;;;;;;;4944294;28;20599;-85
2023/12/12 00:21:18;;;;;;;0.20;0.10;;;;;;;;;;4946790;28;20044;-86
2023/12/12 00:23:44;;;;;;;0.20;0.00;;;;;;;;;;4934515;29;20045;-85
2023/12/12 00:26:12;;;;;;;0.20;0.00;;;;;;;;;;4931709;29;20428;-87
2023/12/12 00:28:45;;;;;;;0.20;0.00;;;;;;;;;;4936127;29;20441;-87
2023/12/12 00:31:11;;;;;;;0.20;0.00;;;;;;;;;;4933840;29;20415;-85
2023/12/12 00:33:37;;;;;;;0.20;0.00;;;;;;;;;;4932056;28;20086;-86
2023/12/12 00:36:04;;;;;;;0.20;0.05;;;;;;;;;;4930283;29;20066;-87
2023/12/12 00:38:36;;;;;;;0.20;0.00;;;;;;;;;;4936099;28;20043;-85
2023/12/12 00:41:12;;;;;;;0.20;0.10;;;;;;;;;;4934012;29;20106;-86
2023/12/12 00:43:56;;;;;;;0.20;0.03;;;;;;;;;;4931742;28;20177;-85
2023/12/12 00:46:22;;;;;;;0.20;0.10;;;;;;;;;;4929225;29;20042;-84
2023/12/12 00:48:48;;;;;;;0.20;0.10;;;;;;;;;;4930502;29;20051;-86
2023/12/12 00:51:22;;;;;;;0.20;0.10;;;;;;;;;;4937256;29;20039;-86
2023/12/12 00:53:49;;;;;;;0.20;0.00;;;;;;;;;;4928810;29;20091;-85
2023/12/12 00:56:15;;;;;;;0.20;0.00;;;;;;;;;;4953645;28;20055;-84
2023/12/12 00:58:41;;;;;;;0.20;0.10;;;;;;;;;;4936203;29;20477;-85
2023/12/12 01:01:07;;;;;;;0.20;0.00;;;;;;;;;;4930774;29;20542;-85
2023/12/12 01:03:33;;;;;;;0.20;0.10;;;;;;;;;;4955727;28;20039;-84
2023/12/12 01:05:59;;;;;;;0.20;0.00;;;;;;;;;;4938505;29;20051;-84
2023/12/12 01:08:25;;;;;;;0.20;0.10;;;;;;;;;;4956055;28;20047;-85
2023/12/12 01:10:51;;;;;;;0.20;0.08;;;;;;;;;;4956796;29;20044;-85
2023/12/12 01:13:17;;;;;;;0.20;0.00;;;;;;;;;;4948113;29;20039;-84
2023/12/12 01:15:43;;;;;;;0.20;0.00;;;;;;;;;;4950939;28;20044;-84
2023/12/12 01:18:09;;;;;;;0.20;0.10;;;;;;;;;;4944795;28;20461;-85
2023/12/12 01:20:35;;;;;;;0.20;0.00;;;;;;;;;;4953899;29;20031;-85
2023/12/12 01:23:02;;;;;;;0.20;0.08;;;;;;;;;;4947645;28;20031;-85
2023/12/12 01:25:29;;;;;;;0.20;0.10;;;;;;;;;;4925984;29;20135;-86
2023/12/12 01:27:55;;;;;;;0.20;0.10;;;;;;;;;;4942800;29;20164;-85
2023/12/12 01:30:21;;;;;;;0.20;0.00;;;;;;;;;;4951986;28;20047;-84
2023/12/12 01:32:47;;;;;;;0.20;0.00;;;;;;;;;;4937578;29;20058;-83
2023/12/12 01:35:13;;;;;;;0.20;0.00;;;;;;;;;;4962181;28;20039;-84
2023/12/12 01:37:39;;;;;;;0.20;0.00;;;;;;;;;;4939424;29;20074;-84
2023/12/12 01:40:06;;;;;;;0.20;0.00;;;;;;;;;;4928053;29;20043;-85
2023/12/12 01:42:32;;;;;;;0.20;0.10;;;;;;;;;;4924501;29;20042;-84
2023/12/12 01:44:58;;;;;;;0.20;0.10;;;;;;;;;;4936616;29;20415;-85
2023/12/12 01:47:24;;;;;;;0.20;0.00;;;;;;;;;;4952909;29;20039;-85
2023/12/12 01:49:50;;;;;;;0.20;0.10;;;;;;;;;;4940065;29;20043;-84
2023/12/12 01:52:16;;;;;;;0.20;0.05;;;;;;;;;;4938287;29;20039;-84
2023/12/12 01:54:45;;;;;;;0.20;0.00;;;;;;;;;;4934565;29;20103;-84
2023/12/12 01:57:12;;;;;;;0.20;0.10;;;;;;;;;;4961129;29;20098;-84
2023/12/12 01:59:38;;;;;;;0.20;0.10;;;;;;;;;;4938035;28;20158;-85
2023/12/12 02:02:04;;;;;;;0.32;0.30;;;;;;;;;;4934039;29;20483;-85
2023/12/12 02:04:31;;;;;;;0.20;0.00;;;;;;;;;;4949292;28;20035;-84
2023/12/12 02:06:58;;;;;;;0.20;0.00;;;;;;;;;;4952221;28;20043;-84
2023/12/12 02:09:25;;;;;;;0.20;0.00;;;;;;;;;;4929831;29;20074;-85
2023/12/12 02:11:51;;;;;;;0.20;0.00;;;;;;;;;;4949013;28;20039;-85
2023/12/12 02:14:17;;;;;;;0.20;0.10;;;;;;;;;;4928548;29;20103;-84
2023/12/12 02:16:43;;;;;;;0.20;0.00;;;;;;;;;;4956810;28;20079;-84
2023/12/12 02:19:09;;;;;;;0.20;0.00;;;;;;;;;;4937012;29;20046;-84
2023/12/12 02:21:35;;;;;;;0.20;0.08;;;;;;;;;;4941226;29;20078;-84
2023/12/12 02:24:01;;;;;;;0.20;0.00;;;;;;;;;;4951823;28;20492;-84
2023/12/12 02:26:27;;;;;;;0.20;0.00;;;;;;;;;;4943178;28;20466;-85
2023/12/12 02:28:53;;;;;;;0.20;0.00;;;;;;;;;;4932410;28;20058;-83
2023/12/12 02:31:19;;;;;;;0.20;0.00;;;;;;;;;;4958841;29;20028;-84
2023/12/12 02:33:45;;;;;;;0.20;0.00;;;;;;;;;;4957806;29;20047;-84
2023/12/12 02:41:24;;;;;;;0.20;0.00;;;;;;;;;;4976144;28;20043;-90
2023/12/12 02:43:55;;;;;;;0.20;0.03;;;;;;;;;;4962694;28;20065;-90
2023/12/12 02:46:26;;;;;;;0.20;0.10;;;;;;;;;;4964912;28;20064;-90
2023/12/12 02:49:05;;;;;;;0.20;0.00;;;;;;;;;;4952372;28;20401;-90
2023/12/12 02:51:32;;;;;;;0.20;0.10;;;;;;;;;;4964844;28;20038;-90
2023/12/12 02:54:01;;;;;;;0.20;0.10;;;;;;;;;;4962369;28;20038;-89
2023/12/12 02:56:50;;;;;;;0.20;0.10;;;;;;;;;;4961509;28;20085;-89
2023/12/12 02:59:22;;;;;;;0.20;0.10;;;;;;;;;;4944856;28;20046;-90
2023/12/12 03:01:48;;;;;;;0.20;0.00;;;;;;;;;;4958469;28;20835;-90
2023/12/12 03:04:19;;;;;;;0.25;0.25;;;;;;;;;;4951518;28;20047;-88
2023/12/12 03:06:50;;;;;;;0.20;0.10;;;;;;;;;;4946587;28;20507;-90
2023/12/12 03:09:24;;;;;;;0.20;0.10;;;;;;;;;;4952302;28;20125;-89
2023/12/12 03:12:08;;;;;;;0.20;0.00;;;;;;;;;;4964950;28;20128;-90
2023/12/12 03:14:54;;;;;;;0.20;0.10;;;;;;;;;;4951977;28;20134;-89
2023/12/12 03:17:38;;;;;;;0.32;0.32;;;;;;;;;;4946887;28;20679;-89
2023/12/12 03:20:27;;;;;;;0.20;0.10;;;;;;;;;;4962614;28;20030;-90
2023/12/12 03:23:09;;;;;;;0.20;0.00;;;;;;;;;;4945050;28;20105;-90
2023/12/12 03:25:39;;;;;;;0.20;0.00;;;;;;;;;;4963494;28;20506;-89
2023/12/12 03:28:30;;;;;;;0.20;0.00;;;;;;;;;;4977722;28;20516;-90
2023/12/12 03:31:04;;;;;;;0.20;0.10;;;;;;;;;;4970573;28;20074;-90
2023/12/12 03:33:30;;;;;;;0.20;0.00;;;;;;;;;;4965354;28;20430;-90
2023/12/12 03:35:59;;;;;;;0.28;0.15;;;;;;;;;;4956431;28;20050;-90
2023/12/12 03:38:32;;;;;;;0.20;0.10;;;;;;;;;;4957678;28;20047;-90
2023/12/12 03:41:18;;;;;;;0.30;0.20;;;;;;;;;;4962201;28;20100;-90
2023/12/12 03:43:58;;;;;;;0.20;0.00;;;;;;;;;;4947302;28;20061;-90
2023/12/12 03:46:24;;;;;;;0.20;0.00;;;;;;;;;;4958277;28;20146;-89
2023/12/12 03:48:53;;;;;;;0.20;0.00;;;;;;;;;;4953204;28;20450;-89
2023/12/12 03:51:31;;;;;;;0.20;0.08;;;;;;;;;;4969043;28;20054;-90
2023/12/12 03:54:03;;;;;;;0.20;0.10;;;;;;;;;;4954228;28;20467;-89
2023/12/12 03:56:40;;;;;;;0.20;0.10;;;;;;;;;;4961010;28;20046;-87
2023/12/12 03:59:09;;;;;;;0.20;0.10;;;;;;;;;;4950164;28;20491;-89
2023/12/12 04:01:40;;;;;;;0.20;0.10;;;;;;;;;;4966021;28;20046;-90
2023/12/12 04:04:28;;;;;;;0.20;0.00;;;;;;;;;;4956239;28;20046;-90
2023/12/12 04:06:56;;;;;;;0.20;0.00;;;;;;;;;;4964476;28;20054;-90
2023/12/12 04:09:30;;;;;;;0.20;0.00;;;;;;;;;;4971213;28;20050;-89
2023/12/12 04:11:59;;;;;;;0.20;0.00;;;;;;;;;;4953901;28;20047;-89
2023/12/12 04:14:27;;;;;;;0.20;0.10;;;;;;;;;;4953696;28;20117;-89
2023/12/12 04:17:03;;;;;;;0.20;0.00;;;;;;;;;;4967129;28;20518;-89
2023/12/12 04:19:30;;;;;;;0.20;0.10;;;;;;;;;;4966980;28;20034;-89
2023/12/12 04:21:56;;;;;;;0.20;0.15;;;;;;;;;;4968817;28;20291;-89
2023/12/12 04:24:28;;;;;;;0.20;0.00;;;;;;;;;;4957460;28;20522;-89
2023/12/12 04:26:54;;;;;;;0.30;0.30;;;;;;;;;;4951053;28;20050;-89
2023/12/12 04:29:20;;;;;;;0.20;0.10;;;;;;;;;;4964599;28;20054;-89
2023/12/12 04:31:49;;;;;;;0.20;0.00;;;;;;;;;;4967123;28;20046;-88
2023/12/12 04:34:15;;;;;;;0.20;0.10;;;;;;;;;;4964933;28;20064;-88
2023/12/12 04:36:44;;;;;;;0.20;0.08;;;;;;;;;;4953049;28;20522;-89
2023/12/12 04:39:18;;;;;;;0.20;0.10;;;;;;;;;;4953416;28;20442;-89
2023/12/12 04:41:52;;;;;;;0.20;0.00;;;;;;;;;;4951787;28;20072;-88
2023/12/12 04:44:27;;;;;;;0.40;0.30;;;;;;;;;;4964001;28;20042;-89
2023/12/12 04:47:01;;;;;;;0.20;0.10;;;;;;;;;;4953225;28;20039;-90
2023/12/12 04:49:30;;;;;;;0.20;0.10;;;;;;;;;;4954277;28;20041;-89
2023/12/12 04:52:05;;;;;;;0.20;0.10;;;;;;;;;;4970677;28;20486;-89
2023/12/12 04:54:39;;;;;;;0.20;0.00;;;;;;;;;;4947326;28;20089;-88
2023/12/12 04:57:08;;;;;;;0.20;0.10;;;;;;;;;;4965992;28;20539;-89
2023/12/12 05:00:00;;;;;;;0.20;0.00;;;;;;;;;;4964522;28;20129;-89
2023/12/12 05:02:32;;;;;;;0.35;0.20;;;;;;;;;;4964641;28;20069;-89
2023/12/12 05:05:13;;;;;;;;;;;;;;;;;;;;;
2023/12/12 05:07:45;;;;;;;0.20;0.00;;;;;;;;;;4962164;28;20061;-88
2023/12/12 05:10:11;;;;;;;0.20;0.10;;;;;;;;;;4946744;28;20054;-88
2023/12/12 05:12:42;;;;;;;0.20;0.10;;;;;;;;;;4950651;28;20039;-88
2023/12/12 05:15:23;;;;;;;0.20;0.10;;;;;;;;;;4967467;28;20569;-88
2023/12/12 05:17:57;;;;;;;1.95;0.90;;;;;;;;;;4962121;28;20081;-89
2023/12/12 05:23:33;;;;;;;0.20;0.10;;;;;;;;;;4971819;28;20046;-89
2023/12/12 05:29:19;;;;;;;0.20;0.00;;;;;;;;;;4976526;28;20680;-86
2023/12/12 05:32:29;;;;;;;0.20;0.13;;;;;;;;;;4956022;28;20042;-85
2023/12/12 05:35:24;;;;;;;0.25;0.10;;;;;;;;;;4971495;23;20534;-86
2023/12/12 05:37:52;;;;;;;0.85;0.35;;;;;;;;;;4945493;28;20043;-86
2023/12/12 05:40:23;;;;;;;0.20;0.10;;;;;;;;;;4951639;28;20563;-86
2023/12/12 05:42:52;;;;;;;0.20;0.10;;;;;;;;;;4939892;28;20042;-86
2023/12/12 05:45:21;;;;;;;0.20;0.08;;;;;;;;;;4951568;28;20090;-85
2023/12/12 05:47:47;;;;;;;0.20;0.00;;;;;;;;;;4951966;28;20054;-85
2023/12/12 05:50:16;;;;;;;0.20;0.00;;;;;;;;;;4964123;28;20410;-85
2023/12/12 05:52:45;;;;;;;0.20;0.10;;;;;;;;;;4980565;28;20074;-85
2023/12/12 05:55:11;;;;;;;0.20;0.10;;;;;;;;;;4951006;28;20051;-85
2023/12/12 05:57:40;;;;;;;0.20;0.10;;;;;;;;;;4979955;28;20650;-86
2023/12/12 06:00:14;;;;;;;0.20;0.10;;;;;;;;;;4966681;28;20607;-86
2023/12/12 06:02:54;;;;;;;0.20;0.10;;;;;;;;;;4979336;28;20046;-85
2023/12/12 06:05:31;;;;;;;0.20;0.10;;;;;;;;;;4948092;28;20398;-86
2023/12/12 06:08:13;;;;;;;0.20;0.00;;;;;;;;;;4955990;28;20125;-86
2023/12/12 06:10:39;;;;;;;0.20;0.00;;;;;;;;;;4934288;28;20042;-86
2023/12/12 06:13:08;;;;;;;0.20;0.00;;;;;;;;;;4965145;28;20089;-85
2023/12/12 06:15:34;;;;;;;0.20;0.10;;;;;;;;;;4954700;28;20121;-85
2023/12/12 06:18:00;;;;;;;0.20;0.00;;;;;;;;;;4955883;28;20085;-85
2023/12/12 06:20:30;;;;;;;0.20;0.00;;;;;;;;;;4956708;28;20077;-85
2023/12/12 06:22:56;;;;;;;0.20;0.00;;;;;;;;;;4935605;28;20423;-84
2023/12/12 06:25:25;;;;;;;0.20;0.10;;;;;;;;;;4944582;28;20055;-86
2023/12/12 06:28:07;;;;;;;0.20;0.05;;;;;;;;;;4939627;28;20045;-85
2023/12/12 06:30:44;;;;;;;0.20;0.10;;;;;;;;;;4935581;28;20600;-86
2023/12/12 06:33:49;;;;;;;0.20;0.10;;;;;;;;;;4964515;28;20050;-85
2023/12/12 06:39:15;;;;;;;0.20;0.10;;;;;;;;;;4948394;28;20042;-85
2023/12/12 06:41:43;;;;;;;0.20;0.00;;;;;;;;;;4965802;28;20047;-85
2023/12/12 06:44:18;;;;;;;0.20;0.10;;;;;;;;;;4982815;28;20559;-85
2023/12/12 06:46:47;;;;;;;0.20;0.00;;;;;;;;;;4962208;28;20035;-86
2023/12/12 06:49:26;;;;;;;0.20;0.10;;;;;;;;;;4953000;28;20055;-85
2023/12/12 06:52:26;;;;;;;0.20;0.00;;;;;;;;;;4947511;28;20133;-85
2023/12/12 06:54:55;;;;;;;0.20;0.00;;;;;;;;;;4967722;28;20054;-86
2023/12/12 06:57:21;;;;;;;0.20;0.10;;;;;;;;;;4967367;28;20055;-86
2023/12/12 06:59:52;;;;;;;0.20;0.00;;;;;;;;;;4948193;28;20035;-86
2023/12/12 07:02:20;;;;;;;0.20;0.00;;;;;;;;;;4983013;28;20052;-86
2023/12/12 07:04:49;;;;;;;0.20;0.00;;;;;;;;;;4979902;28;20031;-86
2023/12/12 07:07:24;;;;;;;0.20;0.03;;;;;;;;;;4963891;28;20039;-86
2023/12/12 07:09:53;;;;;;;0.20;0.00;;;;;;;;;;4948436;28;20047;-86
2023/12/12 07:12:24;;;;;;;0.50;0.50;;;;;;;;;;4951639;28;20038;-87
2023/12/12 07:14:50;;;;;;;0.20;0.00;;;;;;;;;;4929727;28;20584;-86
2023/12/12 07:17:16;;;;;;;0.20;0.00;;;;;;;;;;4979027;28;20035;-85
2023/12/12 07:19:43;;;;;;;0.20;0.00;;;;;;;;;;4976495;28;20092;-85
2023/12/12 07:22:10;;;;;;;0.20;0.10;;;;;;;;;;4975409;28;20038;-84
2023/12/12 07:24:36;;;;;;;0.20;0.10;;;;;;;;;;4948229;28;20096;-85
2023/12/12 07:27:02;;;;;;;0.20;0.00;;;;;;;;;;4946296;28;20031;-84
2023/12/12 07:29:28;;;;;;;0.20;0.00;;;;;;;;;;4979401;28;20050;-85
2023/12/12 07:31:54;;;;;;;0.20;0.00;;;;;;;;;;4950894;28;20043;-85
2023/12/12 07:34:20;;;;;;;0.20;0.05;;;;;;;;;;4979351;28;20043;-85
2023/12/12 07:36:46;;;;;;;0.20;0.00;;;;;;;;;;4964119;28;20039;-85
2023/12/12 07:39:12;;;;;;;0.20;0.03;;;;;;;;;;4945466;28;20043;-84
2023/12/12 07:41:38;;;;;;;0.30;0.30;;;;;;;;;;4965744;28;20077;-84
2023/12/12 07:44:07;;;;;;;0.20;0.10;;;;;;;;;;4951860;28;20424;-84
2023/12/12 07:46:37;;;;;;;0.20;0.10;;;;;;;;;;4954009;28;20141;-86
2023/12/12 07:49:03;;;;;;;0.20;0.00;;;;;;;;;;4981533;28;20055;-84
2023/12/12 07:51:29;;;;;;;0.20;0.05;;;;;;;;;;4944868;28;20043;-84
2023/12/12 07:53:56;;;;;;;0.20;0.00;;;;;;;;;;4964997;28;20531;-85
2023/12/12 07:56:22;;;;;;;0.20;0.00;;;;;;;;;;4983137;28;20091;-85
2023/12/12 07:58:48;;;;;;;0.82;0.47;;;;;;;;;;4943765;28;20050;-84
2023/12/12 08:01:14;;;;;;;0.20;0.00;;;;;;;;;;4947563;28;20039;-84
2023/12/12 08:03:40;;;;;;;0.20;0.10;;;;;;;;;;4943463;28;20105;-84
2023/12/12 08:06:06;;;;;;;0.20;0.10;;;;;;;;;;4977943;28;20065;-85
2023/12/12 08:08:33;;;;;;;0.52;0.20;;;;;;;;;;4949910;28;20050;-85
2023/12/12 08:11:00;;;;;;;0.30;0.30;;;;;;;;;;4932889;28;20698;-84
2023/12/12 08:13:27;;;;;;;0.20;0.00;;;;;;;;;;4981434;28;20465;-84
2023/12/12 08:15:53;;;;;;;0.20;0.10;;;;;;;;;;4951591;28;20083;-84
2023/12/12 08:18:19;;;;;;;0.20;0.10;;;;;;;;;;4965012;28;20031;-84
2023/12/12 08:20:45;;;;;;;0.52;0.52;;;;;;;;;;4980813;28;20066;-84
2023/12/12 08:23:11;;;;;;;0.30;0.22;;;;;;;;;;4984284;28;20129;-84
2023/12/12 08:25:37;;;;;;;0.20;0.10;;;;;;;;;;4940752;28;20054;-85
2023/12/12 08:28:06;;;;;;;0.20;0.10;;;;;;;;;;4939303;28;20047;-85
2023/12/12 08:30:32;;;;;;;0.20;0.10;;;;;;;;;;4949775;28;20078;-84
2023/12/12 08:32:58;;;;;;;0.20;0.00;;;;;;;;;;4953046;28;20053;-84
2023/12/12 08:35:24;;;;;;;0.20;0.10;;;;;;;;;;4951624;28;20055;-83
2023/12/12 08:37:50;;;;;;;2.05;0.95;;;;;;;;;;4954214;28;20522;-84
2023/12/12 08:40:16;;;;;;;0.20;0.00;;;;;;;;;;4977880;23;20058;-86
2023/12/12 08:42:42;;;;;;;0.20;0.10;;;;;;;;;;4973313;28;20071;-85
2023/12/12 08:45:08;;;;;;;0.20;0.00;;;;;;;;;;4964009;28;20042;-85
2023/12/12 08:47:36;;;;;;;0.20;0.10;;;;;;;;;;4962678;28;20077;-86
2023/12/12 08:50:03;;;;;;;0.30;0.30;;;;;;;;;;4969351;28;20153;-85
2023/12/12 08:52:31;;;;;;;0.32;0.32;;;;;;;;;;4984476;28;20054;-86
2023/12/12 08:54:57;;;;;;;0.20;0.00;;;;;;;;;;4990592;28;20130;-86
2023/12/12 08:57:23;;;;;;;0.20;0.00;;;;;;;;;;4974020;28;20270;-86
2023/12/12 08:59:49;;;;;;;0.20;0.10;;;;;;;;;;5006406;28;20103;-86
2023/12/12 09:02:17;;;;;;;0.20;0.00;;;;;;;;;;4995448;28;20050;-85
2023/12/12 09:04:43;;;;;;;1.08;0.60;;;;;;;;;;4994863;28;20031;-86
2023/12/12 09:07:09;;;;;;;0.43;0.40;;;;;;;;;;5002506;28;20038;-85
2023/12/12 09:09:35;;;;;;;0.30;0.22;;;;;;;;;;4991088;28;20053;-86
2023/12/12 09:12:01;;;;;;;0.20;0.10;;;;;;;;;;4978683;28;20062;-86
2023/12/12 09:14:27;;;;;;;0.20;0.00;;;;;;;;;;4989633;28;20034;-86
2023/12/12 09:16:54;;;;;;;0.20;0.10;;;;;;;;;;4969541;28;20046;-86
2023/12/12 09:19:20;;;;;;;0.20;0.00;;;;;;;;;;4994042;28;20045;-86
2023/12/12 09:21:48;;;;;;;0.20;0.00;;;;;;;;;;4997504;28;20042;-86
2023/12/12 09:24:14;;;;;;;0.20;0.00;;;;;;;;;;4995262;28;20463;-86
2023/12/12 09:26:40;;;;;;;0.20;0.20;;;;;;;;;;4977881;28;20050;-87
2023/12/12 09:29:06;;;;;;;0.20;0.10;;;;;;;;;;4996634;28;20045;-86
2023/12/12 09:31:34;;;;;;;0.20;0.10;;;;;;;;;;4997683;28;20070;-86
2023/12/12 09:34:00;;;;;;;0.47;0.47;;;;;;;;;;4988579;28;20045;-86
2023/12/12 09:36:26;;;;;;;0.20;0.00;;;;;;;;;;4989741;28;20031;-87
2023/12/12 09:38:52;;;;;;;0.20;0.10;;;;;;;;;;4995455;28;20075;-86
2023/12/12 09:41:23;;;;;;;1.05;0.50;;;;;;;;;;4972530;28;20047;-87
2023/12/12 09:43:49;;;;;;;0.20;0.10;;;;;;;;;;4988704;28;20046;-86
2023/12/12 09:46:16;;;;;;;0.65;0.30;;;;;;;;;;4993357;28;20042;-86
2023/12/12 09:48:46;;;;;;;0.20;0.10;;;;;;;;;;4987980;28;20074;-86
2023/12/12 09:51:14;;;;;;;0.20;0.00;;;;;;;;;;4984035;28;20039;-86
2023/12/12 09:53:47;;;;;;;0.20;0.10;;;;;;;;;;4988747;28;20043;-87
2023/12/12 09:56:17;;;;;;;0.20;0.13;;;;;;;;;;4982712;28;20050;-86
2023/12/12 09:58:45;;;;;;;0.20;0.00;;;;;;;;;;4986517;28;20037;-86
2023/12/12 10:01:11;;;;;;;0.20;0.00;;;;;;;;;;4985665;28;20614;-86
2023/12/12 10:03:38;;;;;;;0.30;0.22;;;;;;;;;;4984575;28;20078;-86
2023/12/12 10:06:08;;;;;;;0.20;0.00;;;;;;;;;;4985749;28;20075;-86
2023/12/12 10:08:34;;;;;;;0.20;0.10;;;;;;;;;;5005980;28;20047;-87
2023/12/12 10:11:00;;;;;;;0.28;0.20;;;;;;;;;;4996015;28;20491;-86
2023/12/12 10:13:26;;;;;;;0.20;0.10;;;;;;;;;;4988932;28;20045;-86
2023/12/12 10:15:52;;;;;;;0.20;0.10;;;;;;;;;;4982140;28;20047;-87
2023/12/12 10:18:18;;;;;;;0.73;0.57;;;;;;;;;;4991883;28;20031;-86
2023/12/12 10:20:44;;;;;;;0.20;0.10;;;;;;;;;;4986476;28;20043;-86
2023/12/12 10:23:11;;;;;;;0.30;0.20;;;;;;;;;;4966684;28;20049;-86
2023/12/12 10:25:37;;;;;;;0.20;0.20;;;;;;;;;;4960644;28;20074;-87
2023/12/12 10:28:04;;;;;;;0.20;0.00;;;;;;;;;;4990074;28;20049;-86
2023/12/12 10:30:30;;;;;;;0.20;0.00;;;;;;;;;;4980207;28;20061;-86
2023/12/12 10:32:56;;;;;;;0.20;0.10;;;;;;;;;;4981827;28;20134;-87
2023/12/12 10:35:23;;;;;;;0.82;0.60;;;;;;;;;;4980340;28;20078;-85
2023/12/12 10:37:49;;;;;;;0.20;0.00;;;;;;;;;;4979405;28;20121;-87
2023/12/12 10:40:15;;;;;;;0.20;0.10;;;;;;;;;;4991463;28;20039;-86
2023/12/12 10:42:41;;;;;;;0.20;0.10;;;;;;;;;;4998904;28;20058;-86
2023/12/12 10:45:11;;;;;;;0.20;0.10;;;;;;;;;;4986680;28;20449;-86
2023/12/12 10:47:40;;;;;;;0.20;0.10;;;;;;;;;;4989139;28;20106;-86
2023/12/12 10:50:09;;;;;;;0.20;0.10;;;;;;;;;;4985936;28;20068;-86
2023/12/12 10:52:35;;;;;;;0.50;0.43;;;;;;;;;;4961161;28;20049;-86
2023/12/12 10:55:02;;;;;;;0.20;0.10;;;;;;;;;;4989755;28;20589;-86
2023/12/12 10:57:29;;;;;;;0.20;0.10;;;;;;;;;;4986183;28;20047;-86
2023/12/12 10:59:56;;;;;;;0.20;0.08;;;;;;;;;;4988206;28;20039;-86
2023/12/12 11:02:23;;;;;;;0.57;0.20;;;;;;;;;;4982575;28;20035;-86
2023/12/12 11:04:49;;;;;;;0.20;0.10;;;;;;;;;;4987027;28;20031;-87
2023/12/12 11:07:15;;;;;;;0.20;0.20;;;;;;;;;;4999246;28;20101;-86
2023/12/12 11:09:43;;;;;;;0.20;0.10;;;;;;;;;;4993450;28;20082;-86
2023/12/12 11:12:10;;;;;;;0.20;0.10;;;;;;;;;;4962499;28;20042;-86
2023/12/12 11:14:37;;;;;;;0.20;0.10;;;;;;;;;;4986172;28;20062;-86
2023/12/12 11:17:03;;;;;;;0.20;0.10;;;;;;;;;;4981025;28;20050;-87
2023/12/12 11:19:29;;;;;;;0.20;0.10;;;;;;;;;;4987168;28;20523;-85
2023/12/12 11:21:55;;;;;;;0.82;0.57;;;;;;;;;;4968099;28;20035;-87
2023/12/12 11:24:21;;;;;;;0.38;0.38;;;;;;;;;;4988331;28;20471;-87
2023/12/12 11:26:52;;;;;;;0.20;0.10;;;;;;;;;;4991262;28;20105;-86
2023/12/12 11:29:23;;;;;;;0.20;0.20;;;;;;;;;;4974027;28;20042;-85
2023/12/12 11:32:10;;;;;;;0.95;0.75;;;;;;;;;;4987932;28;20042;-87
2023/12/12 11:34:41;;;;;;;0.20;0.05;;;;;;;;;;4976366;28;20395;-87
2023/12/12 11:37:08;;;;;;;0.20;0.00;;;;;;;;;;4959398;28;20393;-86
2023/12/12 11:39:37;;;;;;;0.20;0.00;;;;;;;;;;4987534;28;20125;-87
2023/12/12 11:42:04;;;;;;;0.20;0.08;;;;;;;;;;4990069;28;20039;-85
2023/12/12 11:44:44;;;;;;;0.20;0.10;;;;;;;;;;4993008;28;20039;-87
2023/12/12 11:47:11;;;;;;;0.20;0.10;;;;;;;;;;4969660;28;20124;-87
2023/12/12 11:49:37;;;;;;;0.20;0.00;;;;;;;;;;4966275;28;20043;-87
2023/12/12 11:52:03;;;;;;;0.20;0.13;;;;;;;;;;4990428;28;20249;-87
2023/12/12 11:54:30;;;;;;;0.20;0.00;;;;;;;;;;4995782;28;20046;-87
2023/12/12 11:56:57;;;;;;;0.20;0.00;;;;;;;;;;4995744;28;20078;-86
2023/12/12 11:59:24;;;;;;;0.20;0.08;;;;;;;;;;4997594;28;20108;-87
2023/12/12 12:01:51;;;;;;;0.32;0.30;;;;;;;;;;4962903;28;20031;-87
2023/12/12 12:04:17;;;;;;;0.45;0.45;;;;;;;;;;5007038;28;20045;-86
2023/12/12 12:06:43;;;;;;;0.20;0.10;;;;;;;;;;4998552;28;20050;-87
2023/12/12 12:09:10;;;;;;;0.20;0.10;;;;;;;;;;5001442;28;20049;-87
2023/12/12 12:11:36;;;;;;;0.20;0.00;;;;;;;;;;4961194;28;20046;-86
2023/12/12 12:14:03;;;;;;;0.52;0.52;;;;;;;;;;4990694;28;21422;-87
2023/12/12 12:16:29;;;;;;;0.20;0.10;;;;;;;;;;4994433;28;20062;-88
2023/12/12 12:18:55;;;;;;;0.20;0.00;;;;;;;;;;4977232;28;20049;-86
2023/12/12 12:21:25;;;;;;;0.20;0.00;;;;;;;;;;4992017;28;20039;-86
2023/12/12 12:23:52;;;;;;;0.20;0.00;;;;;;;;;;4993474;28;20070;-86
2023/12/12 12:26:18;;;;;;;0.20;0.20;;;;;;;;;;4992804;28;20086;-87
2023/12/12 12:28:44;;;;;;;0.20;0.00;;;;;;;;;;4968884;28;20039;-87
2023/12/12 12:31:10;;;;;;;0.20;0.00;;;;;;;;;;4977566;28;20046;-87
2023/12/12 12:33:37;;;;;;;0.20;0.03;;;;;;;;;;4986841;28;20055;-87
2023/12/12 12:36:03;;;;;;;0.20;0.10;;;;;;;;;;4969231;28;20042;-88
2023/12/12 12:38:31;;;;;;;0.20;0.10;;;;;;;;;;4966536;28;20043;-88
2023/12/12 12:40:57;;;;;;;0.20;0.00;;;;;;;;;;4983704;28;20031;-87
2023/12/12 12:43:24;;;;;;;0.20;0.00;;;;;;;;;;4979941;28;20050;-89
2023/12/12 12:45:50;;;;;;;0.35;0.35;;;;;;;;;;4982285;28;20538;-89
2023/12/12 12:48:16;;;;;;;3.20;0.35;;;;;;;;;;4978645;28;20049;-88
2023/12/12 12:50:43;;;;;;;0.20;0.10;;;;;;;;;;4954897;28;20050;-89
2023/12/12 12:53:10;;;;;;;0.20;0.10;;;;;;;;;;4991089;28;20246;-85
2023/12/12 12:55:36;;;;;;;0.20;0.00;;;;;;;;;;4998626;28;20053;-84
2023/12/12 12:58:02;;;;;;;0.20;0.00;;;;;;;;;;4996345;28;20102;-85
2023/12/12 13:00:28;;;;;;;0.20;0.10;;;;;;;;;;4994162;28;20455;-85
2023/12/12 13:02:57;;;;;;;0.20;0.20;;;;;;;;;;4983247;28;20057;-85
2023/12/12 13:05:26;;;;;;;0.20;0.00;;;;;;;;;;4991763;28;20050;-86
2023/12/12 13:07:52;;;;;;;0.20;0.10;;;;;;;;;;4993181;28;20163;-86
2023/12/12 13:10:18;;;;;;;0.20;0.10;;;;;;;;;;4983944;28;20126;-88
2023/12/12 13:12:44;;;;;;;0.20;0.03;;;;;;;;;;4984192;28;20058;-88
2023/12/12 13:15:10;;;;;;;0.20;0.05;;;;;;;;;;4971127;28;20596;-88
2023/12/12 13:17:37;;;;;;;0.20;0.10;;;;;;;;;;4949790;28;20031;-90
2023/12/12 13:20:09;;;;;;;0.45;0.32;;;;;;;;;;4959448;28;20071;-88
2023/12/12 13:22:42;;;;;;;0.20;0.10;;;;;;;;;;4952843;28;20039;-86
2023/12/12 13:25:11;;;;;;;0.20;0.10;;;;;;;;;;4993210;28;20046;-86
2023/12/12 13:27:41;;;;;;;0.20;0.00;;;;;;;;;;4989950;28;20039;-88
2023/12/12 13:30:11;;;;;;;0.20;0.10;;;;;;;;;;4962483;28;20280;-89
2023/12/12 13:32:38;;;;;;;0.28;0.17;;;;;;;;;;4978599;28;20102;-87
2023/12/12 13:35:05;;;;;;;0.20;0.20;;;;;;;;;;4970064;28;20047;-85
2023/12/12 13:37:31;;;;;;;0.20;0.10;;;;;;;;;;4989397;28;20045;-86
2023/12/12 13:39:57;;;;;;;0.20;0.10;;;;;;;;;;4972827;28;20102;-86
2023/12/12 13:42:23;;;;;;;0.20;0.10;;;;;;;;;;5007663;28;20050;-85
2023/12/12 13:44:49;;;;;;;0.85;0.20;;;;;;;;;;4975794;28;20260;-86
2023/12/12 13:47:15;;;;;;;0.20;0.10;;;;;;;;;;4992660;28;20141;-86
2023/12/12 13:49:42;;;;;;;0.20;0.00;;;;;;;;;;4965665;28;20049;-86
2023/12/12 13:52:08;;;;;;;0.20;0.15;;;;;;;;;;4970449;28;20042;-87
2023/12/12 13:54:34;;;;;;;0.28;0.28;;;;;;;;;;4985659;28;20043;-89
2023/12/12 13:57:00;;;;;;;0.20;0.00;;;;;;;;;;4977836;28;20058;-89
2023/12/12 13:59:26;;;;;;;0.20;0.10;;;;;;;;;;4961610;28;20031;-89
2023/12/12 14:01:52;;;;;;;0.20;0.10;;;;;;;;;;4979063;28;20431;-90
2023/12/12 14:04:21;;;;;;;0.20;0.10;;;;;;;;;;4977256;28;20452;-86
2023/12/12 14:06:47;;;;;;;0.20;0.10;;;;;;;;;;4991698;28;20038;-86
2023/12/12 14:09:13;;;;;;;2.83;0.85;;;;;;;;;;5004691;28;20043;-87
2023/12/12 14:11:40;;;;;;;0.20;0.17;;;;;;;;;;4984793;28;20480;-87
2023/12/12 14:14:06;;;;;;;0.32;0.25;;;;;;;;;;4972490;28;20038;-88
2023/12/12 14:16:32;;;;;;;0.30;0.28;;;;;;;;;;4985484;28;20070;-87
2023/12/12 14:18:58;;;;;;;0.38;0.20;;;;;;;;;;4957056;28;20043;-87
2023/12/12 14:21:24;;;;;;;0.20;0.10;;;;;;;;;;4990099;28;20030;-86
2023/12/12 14:23:50;;;;;;;0.20;0.00;;;;;;;;;;4980841;28;20170;-88
2023/12/12 14:26:17;;;;;;;0.20;0.08;;;;;;;;;;4981323;28;20078;-86
2023/12/12 14:28:48;;;;;;;0.20;0.10;;;;;;;;;;4980793;28;20047;-86
2023/12/12 14:31:17;;;;;;;0.20;0.10;;;;;;;;;;4957137;28;20043;-87
2023/12/12 14:33:44;;;;;;;0.20;0.00;;;;;;;;;;4994233;28;20051;-86
2023/12/12 14:36:13;;;;;;;0.30;0.22;;;;;;;;;;4980764;28;20043;-87
2023/12/12 14:38:39;;;;;;;0.50;0.20;;;;;;;;;;4953707;28;20555;-87
2023/12/12 14:41:06;;;;;;;0.22;0.05;;;;;;;;;;4965139;23;20527;-85
2023/12/12 14:43:32;;;;;;;0.20;0.10;;;;;;;;;;4952464;28;20054;-84
2023/12/12 14:46:01;;;;;;;0.20;0.20;;;;;;;;;;4965821;28;20046;-86
2023/12/12 14:48:28;;;;;;;0.55;0.52;;;;;;;;;;4966420;28;20077;-84
2023/12/12 14:50:57;;;;;;;0.52;0.52;;;;;;;;;;4954788;28;20042;-86
2023/12/12 14:53:23;;;;;;;0.20;0.00;;;;;;;;;;4982068;28;20046;-86
2023/12/12 14:55:53;;;;;;;0.20;0.15;;;;;;;;;;4944896;28;20550;-85
2023/12/12 14:58:19;;;;;;;0.20;0.17;;;;;;;;;;4956116;28;20395;-86
2023/12/12 15:00:46;;;;;;;0.20;0.08;;;;;;;;;;4964407;28;20549;-86
2023/12/12 15:03:12;;;;;;;0.20;0.03;;;;;;;;;;4993782;28;20097;-84
2023/12/12 15:05:40;;;;;;;0.20;0.10;;;;;;;;;;4994816;28;20069;-87
2023/12/12 15:08:09;;;;;;;0.20;0.10;;;;;;;;;;4981647;28;20290;-88